Time;durP1;ratioP1;P1;durP2;ratioP2;P2;SDS_P1;SDS_P2;PMS_P1;PMS_P2;Temp;Humidity;BMP_temperature;BMP_pressure;BME280_temperature;BME280_humidity;BME280_pressure;Samples;Min_cycle;Max_cycle;Signal;HPM_P1;HPM_P2
2022/04/02 00:00:26;;;;;;;7.15;5.60;;;;;;;7.51;57.58;101131.72;4994742;28;20033;-93
2022/04/02 00:02:52;;;;;;;8.05;5.28;;;;;;;7.53;57.88;101137.75;4976152;28;20026;-91
2022/04/02 00:05:17;;;;;;;9.40;5.78;;;;;;;7.80;57.02;101140.91;4977279;28;20508;-87
2022/04/02 00:07:42;;;;;;;6.82;5.72;;;;;;;7.92;57.28;101150.81;4974071;28;20058;-86
2022/04/02 00:10:08;;;;;;;9.48;6.10;;;;;;;7.72;57.78;101150.81;4988506;28;20031;-88
2022/04/02 00:12:34;;;;;;;8.00;5.82;;;;;;;7.65;58.17;101142.41;4992074;28;20030;-87
2022/04/02 00:14:59;;;;;;;7.45;6.30;;;;;;;7.57;58.96;101148.91;4989650;28;20567;-88
2022/04/02 00:17:25;;;;;;;8.23;6.38;;;;;;;7.43;58.88;101142.50;4990635;28;20106;-88
2022/04/02 00:19:50;;;;;;;7.50;6.35;;;;;;;7.49;58.56;101137.00;4987034;28;20412;-88
2022/04/02 00:22:16;;;;;;;7.45;6.30;;;;;;;7.55;58.82;101143.75;4975232;28;20035;-88
2022/04/02 00:24:42;;;;;;;9.65;6.35;;;;;;;7.49;58.67;101150.09;4988396;28;20104;-88
2022/04/02 00:27:08;;;;;;;8.50;6.25;;;;;;;7.44;58.36;101144.19;4993478;28;20069;-88
2022/04/02 00:29:34;;;;;;;7.03;5.63;;;;;;;7.41;58.54;101141.72;4992720;28;20045;-88
2022/04/02 00:32:00;;;;;;;7.43;6.30;;;;;;;7.30;57.80;101128.28;4982072;28;20031;-88
2022/04/02 00:34:26;;;;;;;9.02;6.15;;;;;;;7.24;58.58;101139.81;4979112;28;20023;-88
2022/04/02 00:36:51;;;;;;;6.85;6.15;;;;;;;7.21;58.79;101133.88;4977589;28;20025;-88
2022/04/02 00:39:17;;;;;;;7.93;5.93;;;;;;;7.14;59.11;101139.34;4978697;28;20631;-88
2022/04/02 00:41:42;;;;;;;7.45;6.30;;;;;;;7.03;58.68;101132.88;4991477;28;20034;-88
2022/04/02 00:44:11;;;;;;;7.60;6.55;;;;;;;7.09;58.54;101133.50;4981716;28;20031;-88
2022/04/02 00:46:39;;;;;;;10.30;5.88;;;;;;;7.01;58.77;101143.41;4981078;28;20073;-88
2022/04/02 00:49:05;;;;;;;10.50;6.10;;;;;;;6.92;58.58;101147.22;4989716;28;20370;-87
2022/04/02 00:51:31;;;;;;;7.22;5.88;;;;;;;6.88;58.96;101140.44;4994920;28;20031;-88
2022/04/02 00:53:57;;;;;;;8.82;5.50;;;;;;;6.84;59.15;101136.25;4991523;28;20030;-88
2022/04/02 00:56:23;;;;;;;8.75;6.20;;;;;;;6.77;58.42;101126.13;4993541;28;20022;-88
2022/04/02 00:58:49;;;;;;;8.82;6.00;;;;;;;6.70;58.75;101136.81;4987280;28;20034;-88
2022/04/02 01:01:16;;;;;;;6.40;5.45;;;;;;;6.61;59.11;101131.97;4987802;28;20389;-88
2022/04/02 01:03:43;;;;;;;6.32;5.30;;;;;;;6.53;59.38;101126.19;4992639;28;20519;-88
2022/04/02 01:06:11;;;;;;;9.30;5.75;;;;;;;6.57;59.10;101124.31;4990826;28;20122;-88
2022/04/02 01:08:38;;;;;;;10.90;6.47;;;;;;;6.54;59.09;101127.91;4990728;28;20041;-88
2022/04/02 01:11:03;;;;;;;8.40;5.95;;;;;;;6.46;59.04;101124.75;4984410;28;20116;-88
2022/04/02 01:13:29;;;;;;;7.68;6.07;;;;;;;6.40;59.35;101127.56;5001124;28;20053;-88
2022/04/02 01:15:56;;;;;;;8.68;6.20;;;;;;;6.35;59.87;101115.56;4997594;28;20060;-87
2022/04/02 01:18:22;;;;;;;8.68;6.95;;;;;;;6.37;60.01;101115.50;5000774;28;20026;-87
2022/04/02 01:20:48;;;;;;;8.05;6.85;;;;;;;6.29;60.19;101115.81;4993699;28;20018;-88
2022/04/02 01:23:14;;;;;;;8.32;6.20;;;;;;;6.34;59.74;101128.69;4991162;28;20037;-88
2022/04/02 01:25:40;;;;;;;8.63;6.60;;;;;;;6.29;60.60;101118.41;4990365;28;20053;-88
2022/04/02 01:28:06;;;;;;;9.30;6.82;;;;;;;6.31;60.45;101121.81;4994926;28;20034;-88
2022/04/02 01:30:32;;;;;;;9.15;6.35;;;;;;;6.33;60.39;101126.97;4994153;28;20559;-88
2022/04/02 01:32:57;;;;;;;10.07;6.32;;;;;;;6.41;59.98;101118.84;4981242;28;20027;-88
2022/04/02 01:35:23;;;;;;;6.72;6.03;;;;;;;6.61;59.47;101123.28;4984963;28;20474;-87
2022/04/02 01:37:49;;;;;;;7.60;6.18;;;;;;;6.64;59.37;101123.19;4987888;28;20062;-87
2022/04/02 01:40:15;;;;;;;10.35;6.00;;;;;;;6.51;59.16;101122.81;4985197;28;20035;-87
2022/04/02 01:42:41;;;;;;;7.68;5.63;;;;;;;6.48;59.51;101115.94;4991850;28;20033;-88
2022/04/02 01:45:07;;;;;;;8.15;6.63;;;;;;;6.47;59.51;101116.00;4989059;28;20471;-88
2022/04/02 01:47:33;;;;;;;9.35;6.80;;;;;;;6.47;59.69;101113.41;4992654;28;20042;-87
2022/04/02 01:49:58;;;;;;;9.77;6.15;;;;;;;6.47;59.43;101116.00;4993278;28;20500;-88
2022/04/02 01:52:23;;;;;;;7.38;5.88;;;;;;;6.45;59.16;101116.06;4994985;28;20443;-88
2022/04/02 01:54:49;;;;;;;8.20;6.43;;;;;;;6.41;59.62;101113.66;4978098;28;20089;-87
2022/04/02 01:57:16;;;;;;;7.80;6.22;;;;;;;6.39;59.24;101112.84;4975456;28;20035;-88
2022/04/02 01:59:44;;;;;;;8.73;6.25;;;;;;;6.32;59.22;101120.91;4975209;28;20109;-87
2022/04/02 02:02:10;;;;;;;8.07;5.63;;;;;;;6.29;60.03;101114.97;4974183;28;20034;-88
2022/04/02 02:04:36;;;;;;;8.07;6.03;;;;;;;6.21;59.54;101117.88;4980014;28;20038;-88
2022/04/02 02:07:03;;;;;;;12.77;5.45;;;;;;;6.19;59.71;101111.03;4975180;28;20050;-88
2022/04/02 02:09:29;;;;;;;7.45;6.07;;;;;;;6.14;60.08;101111.19;4975773;28;20042;-87
2022/04/02 02:11:54;;;;;;;7.57;5.82;;;;;;;6.15;59.27;101107.69;4976465;28;20030;-87
2022/04/02 02:14:19;;;;;;;7.72;5.63;;;;;;;6.12;59.73;101102.56;4986449;28;20503;-87
2022/04/02 02:16:45;;;;;;;8.50;6.32;;;;;;;6.14;59.17;101116.38;4987804;28;20046;-87
2022/04/02 02:19:10;;;;;;;7.45;5.68;;;;;;;6.15;59.41;101118.09;4982216;28;20034;-87
2022/04/02 02:21:36;;;;;;;8.18;5.75;;;;;;;6.12;59.75;101113.88;4983813;28;20065;-87
2022/04/02 02:24:02;;;;;;;8.20;6.00;;;;;;;6.09;59.26;101115.75;4989270;28;20027;-88
2022/04/02 02:26:27;;;;;;;7.63;5.75;;;;;;;6.06;59.54;101114.09;4982814;28;20030;-88
2022/04/02 02:28:52;;;;;;;9.73;6.05;;;;;;;6.06;59.85;101121.94;4976478;28;20038;-87
2022/04/02 02:31:18;;;;;;;8.68;6.55;;;;;;;6.09;59.31;101126.16;4978589;28;20499;-88
2022/04/02 02:36:27;;;;;;;10.23;6.63;;;;;;;6.06;59.37;101121.06;4991689;28;20077;-87
2022/04/02 02:38:53;;;;;;;7.85;6.35;;;;;;;6.04;59.85;101115.91;4991248;28;20511;-88
2022/04/02 02:41:18;;;;;;;8.32;6.82;;;;;;;6.01;59.52;101115.19;4990863;28;20046;-87
2022/04/02 02:43:44;;;;;;;8.50;6.38;;;;;;;5.96;59.59;101115.34;4982824;28;20026;-87
2022/04/02 02:46:12;;;;;;;7.70;6.45;;;;;;;5.93;58.96;101118.03;4992340;28;20080;-88
2022/04/02 02:48:38;;;;;;;10.00;7.18;;;;;;;5.86;59.11;101120.00;4982184;28;20090;-87
2022/04/02 02:51:03;;;;;;;7.57;6.40;;;;;;;5.81;59.07;101116.72;4988372;28;20023;-87
2022/04/02 02:53:28;;;;;;;10.00;7.05;;;;;;;5.75;58.68;101117.81;4985402;28;20480;-87
2022/04/02 02:55:53;;;;;;;6.88;5.63;;;;;;;5.69;59.04;101117.19;4985917;28;20117;-87
2022/04/02 02:58:19;;;;;;;9.13;6.65;;;;;;;5.65;58.87;101124.25;4991255;28;20030;-87
2022/04/02 03:00:46;;;;;;;9.23;7.32;;;;;;;5.65;59.27;101118.22;4992402;28;20045;-87
2022/04/02 03:03:11;;;;;;;9.13;7.47;;;;;;;5.63;59.09;101127.81;4980980;28;20022;-87
2022/04/02 03:05:37;;;;;;;11.27;8.10;;;;;;;5.60;59.16;101114.91;4984535;28;20060;-87
2022/04/02 03:08:02;;;;;;;8.75;7.30;;;;;;;5.52;59.47;101123.84;4992634;28;20054;-87
2022/04/02 03:10:28;;;;;;;8.57;6.95;;;;;;;5.47;59.38;101125.78;4992591;28;20018;-87
2022/04/02 03:12:57;;;;;;;10.95;7.63;;;;;;;5.61;59.09;101121.78;4988916;28;20493;-87
2022/04/02 03:15:22;;;;;;;9.77;7.43;;;;;;;5.53;58.81;101133.38;4985858;28;20054;-86
2022/04/02 03:17:49;;;;;;;10.48;7.82;;;;;;;5.48;58.83;101130.06;4990292;28;20065;-87
2022/04/02 03:20:17;;;;;;;8.05;6.93;;;;;;;5.40;58.61;101126.03;4985287;28;20131;-88
2022/04/02 03:22:43;;;;;;;11.00;7.25;;;;;;;5.35;58.93;101124.44;4981290;28;20528;-87
2022/04/02 03:25:11;;;;;;;8.90;7.30;;;;;;;5.35;58.76;101126.16;4980875;28;20034;-89
2022/04/02 03:27:38;;;;;;;9.48;7.35;;;;;;;5.28;59.08;101127.31;4978009;28;20061;-89
2022/04/02 03:30:06;;;;;;;11.23;8.48;;;;;;;5.26;59.80;101123.91;4990968;28;20030;-88
2022/04/02 03:32:32;;;;;;;11.00;8.43;;;;;;;5.05;59.78;101118.50;4974624;28;20023;-88
2022/04/02 03:34:57;;;;;;;12.20;8.73;;;;;;;4.90;60.92;101122.47;4977111;28;20566;-88
2022/04/02 03:37:27;;;;;;;10.05;8.50;;;;;;;4.86;60.47;101130.41;4983950;28;20157;-87
2022/04/02 03:39:53;;;;;;;12.25;8.52;;;;;;;4.77;61.08;101126.38;4975623;28;20045;-89
2022/04/02 03:42:20;;;;;;;15.52;9.88;;;;;;;4.75;61.08;101131.63;4988295;28;20066;-88
2022/04/02 03:44:46;;;;;;;12.20;9.32;;;;;;;4.67;61.19;101127.56;4977215;28;20064;-87
2022/04/02 03:47:12;;;;;;;15.75;10.45;;;;;;;4.69;61.14;101128.38;4992646;28;20026;-88
2022/04/02 03:49:39;;;;;;;12.65;9.98;;;;;;;4.65;61.78;101130.22;4974265;28;20038;-88
2022/04/02 03:52:06;;;;;;;15.88;10.95;;;;;;;4.63;61.47;101129.41;4973120;28;20035;-89
2022/04/02 03:54:31;;;;;;;12.60;9.68;;;;;;;4.60;60.75;101121.72;4972742;28;20038;-88
2022/04/02 03:56:58;;;;;;;12.60;9.55;;;;;;;4.57;61.10;101124.41;4973388;28;20023;-88
2022/04/02 03:59:24;;;;;;;12.60;9.07;;;;;;;4.53;61.27;101126.25;4972925;28;20085;-87
2022/04/02 04:01:49;;;;;;;15.13;9.07;;;;;;;4.43;60.97;101113.59;4977054;28;20101;-89
2022/04/02 04:04:15;;;;;;;11.88;8.75;;;;;;;4.48;61.57;101111.69;4990081;28;20397;-87
2022/04/02 04:06:40;;;;;;;13.15;9.38;;;;;;;4.51;61.44;101117.66;4986190;28;20033;-87
2022/04/02 04:09:06;;;;;;;12.70;9.55;;;;;;;4.53;61.04;101115.00;4972845;28;20051;-87
2022/04/02 04:11:32;;;;;;;12.13;9.38;;;;;;;4.52;61.16;101115.91;4983894;28;20107;-88
2022/04/02 04:13:58;;;;;;;13.50;9.57;;;;;;;4.53;60.66;101117.63;4982210;28;20043;-87
2022/04/02 04:16:23;;;;;;;15.05;9.23;;;;;;;4.52;60.72;101123.69;4992578;28;20114;-87
2022/04/02 04:18:48;;;;;;;12.25;9.77;;;;;;;4.48;61.62;101112.56;4984770;28;20070;-87
2022/04/02 04:21:14;;;;;;;13.85;10.18;;;;;;;4.42;61.43;101111.88;4991285;28;20400;-87
2022/04/02 04:23:40;;;;;;;13.65;10.35;;;;;;;4.42;61.27;101117.09;4991133;28;20105;-87
2022/04/02 04:26:06;;;;;;;13.77;9.68;;;;;;;4.44;61.22;101120.50;4995612;28;20035;-87
2022/04/02 04:28:31;;;;;;;11.68;9.50;;;;;;;4.40;61.23;101118.88;4994919;28;20034;-87
2022/04/02 04:30:56;;;;;;;12.07;9.07;;;;;;;4.36;61.69;101113.78;4993920;28;20508;-86
2022/04/02 04:33:22;;;;;;;15.68;8.73;;;;;;;4.49;61.04;101114.25;4990755;28;20034;-86
2022/04/02 04:35:47;;;;;;;11.93;8.38;;;;;;;4.47;60.32;101115.22;4991368;28;20041;-87
2022/04/02 04:38:13;;;;;;;12.13;8.85;;;;;;;4.36;60.71;101116.41;4994173;28;20045;-86
2022/04/02 04:40:38;;;;;;;10.90;8.48;;;;;;;4.34;61.38;101114.72;4994130;28;20432;-86
2022/04/02 04:43:04;;;;;;;13.00;9.55;;;;;;;4.35;61.31;101111.22;4986982;28;20077;-86
2022/04/02 04:45:29;;;;;;;13.05;9.30;;;;;;;4.39;61.29;101123.25;4986401;28;20046;-86
2022/04/02 04:47:54;;;;;;;12.35;8.85;;;;;;;4.53;61.40;101126.25;4991059;28;20493;-86
2022/04/02 04:50:20;;;;;;;12.35;8.70;;;;;;;4.64;60.61;101120.72;4993079;28;20073;-86
2022/04/02 04:52:45;;;;;;;12.77;9.88;;;;;;;4.67;60.75;101131.03;4989970;28;20525;-87
2022/04/02 04:55:11;;;;;;;14.77;9.13;;;;;;;4.54;61.12;101129.69;4981982;28;20100;-86
2022/04/02 04:57:36;;;;;;;10.40;7.70;;;;;;;4.64;61.09;101125.94;4994767;28;20085;-87
2022/04/02 05:00:04;;;;;;;12.02;8.40;;;;;;;4.73;60.77;101130.81;4994256;28;20105;-86
2022/04/02 05:02:30;;;;;;;13.25;9.15;;;;;;;4.47;60.84;101125.59;4991010;28;20042;-87
2022/04/02 05:04:56;;;;;;;12.57;8.63;;;;;;;4.40;61.26;101137.09;4993751;28;20053;-86
2022/04/02 05:07:21;;;;;;;9.75;7.78;;;;;;;4.45;61.30;101133.44;4976057;28;20523;-87
2022/04/02 05:09:47;;;;;;;13.95;9.60;;;;;;;4.50;60.74;101138.50;4979649;28;20473;-86
2022/04/02 05:12:13;;;;;;;14.95;9.10;;;;;;;4.53;60.69;101135.81;4993836;28;20168;-88
2022/04/02 05:14:38;;;;;;;15.48;10.90;;;;;;;4.54;60.87;101142.72;4988805;28;20030;-87
2022/04/02 05:17:04;;;;;;;14.30;9.75;;;;;;;4.54;60.90;101137.50;4979977;28;20213;-87
2022/04/02 05:19:30;;;;;;;12.10;9.32;;;;;;;4.52;60.82;101137.56;4976702;28;20046;-87
2022/04/02 05:21:56;;;;;;;14.18;10.05;;;;;;;4.54;60.75;101138.38;4980090;28;20026;-87
2022/04/02 05:24:21;;;;;;;13.50;9.27;;;;;;;4.38;61.18;101147.53;4990262;28;20121;-88
2022/04/02 05:26:48;;;;;;;13.48;9.13;;;;;;;4.52;60.46;101136.69;4992074;28;20507;-88
2022/04/02 05:29:14;;;;;;;11.30;8.18;;;;;;;4.55;60.87;101144.41;4983815;28;20034;-88
2022/04/02 05:31:41;;;;;;;16.30;9.32;;;;;;;4.57;60.22;101142.63;4990049;28;20024;-87
2022/04/02 05:34:06;;;;;;;13.10;10.00;;;;;;;4.56;60.15;101146.09;4995205;28;20082;-88
2022/04/02 05:36:32;;;;;;;11.65;9.18;;;;;;;4.45;60.29;101151.66;4987643;28;20428;-88
2022/04/02 05:38:58;;;;;;;15.57;9.73;;;;;;;4.46;60.34;101152.50;4989457;28;20030;-87
2022/04/02 05:41:24;;;;;;;19.25;10.70;;;;;;;4.42;60.09;101154.34;4974982;28;20494;-88
2022/04/02 05:43:49;;;;;;;13.38;9.07;;;;;;;4.38;60.67;101147.53;4992292;28;20424;-87
2022/04/02 05:46:16;;;;;;;14.68;9.25;;;;;;;4.36;59.96;101149.31;4993407;28;20038;-88
2022/04/02 05:48:41;;;;;;;13.93;9.63;;;;;;;4.29;60.65;101148.66;4993928;28;20018;-88
2022/04/02 05:51:07;;;;;;;12.38;9.27;;;;;;;4.39;61.17;101158.81;4978503;28;20033;-87
2022/04/02 05:53:32;;;;;;;13.25;9.45;;;;;;;4.42;60.87;101149.13;4973297;28;20027;-88
2022/04/02 05:55:58;;;;;;;16.05;9.90;;;;;;;4.47;60.84;101154.22;4978006;28;20065;-87
2022/04/02 05:58:23;;;;;;;17.20;10.50;;;;;;;4.45;61.16;101158.59;4978588;28;20030;-86
2022/04/02 06:00:49;;;;;;;14.93;10.00;;;;;;;4.32;61.55;101158.97;4990343;28;20023;-86
2022/04/02 06:03:16;;;;;;;15.48;10.18;;;;;;;4.32;61.58;101156.34;4991587;28;20038;-86
2022/04/02 06:05:42;;;;;;;21.48;11.48;;;;;;;4.54;61.85;101147.91;4992492;28;20034;-86
2022/04/02 06:08:07;;;;;;;17.48;10.75;;;;;;;4.50;61.63;101154.97;4994353;28;20030;-86
2022/04/02 06:10:33;;;;;;;17.65;11.43;;;;;;;4.78;60.74;101159.31;4992276;28;20036;-86
2022/04/02 06:12:58;;;;;;;13.18;9.82;;;;;;;4.85;60.13;101158.19;4994129;28;20097;-86
2022/04/02 06:15:24;;;;;;;15.57;9.50;;;;;;;4.89;60.03;101161.56;4992701;28;20036;-86
2022/04/02 06:17:51;;;;;;;11.88;8.85;;;;;;;4.88;60.49;101158.13;4987451;28;20065;-88
2022/04/02 06:20:16;;;;;;;11.77;8.32;;;;;;;4.91;60.10;101163.22;4985873;28;20473;-86
2022/04/02 06:22:42;;;;;;;12.18;8.98;;;;;;;5.00;60.00;101164.69;4979221;28;20092;-87
2022/04/02 06:25:08;;;;;;;13.32;9.32;;;;;;;5.06;60.20;101171.44;4984632;28;21721;-86
2022/04/02 06:27:44;;;;;;;13.95;9.60;;;;;;;5.30;59.59;101169.75;4982724;28;20035;-87
2022/04/02 06:30:15;;;;;;;12.48;9.65;;;;;;;5.22;59.41;101177.00;4979392;28;20038;-87
2022/04/02 06:32:41;;;;;;;11.10;8.23;;;;;;;5.18;59.76;101185.81;4979500;28;20496;-87
2022/04/02 06:35:07;;;;;;;13.95;8.75;;;;;;;5.20;60.06;101184.00;4977296;28;20065;-87
2022/04/02 06:37:34;;;;;;;11.98;8.65;;;;;;;5.26;59.75;101189.00;4973902;28;20027;-87
2022/04/02 06:40:00;;;;;;;16.40;10.30;;;;;;;5.24;60.05;101194.25;4978197;28;20042;-88
2022/04/02 06:42:25;;;;;;;17.85;10.40;;;;;;;5.25;59.99;101179.47;4985813;28;20480;-89
2022/04/02 06:44:50;;;;;;;15.75;10.32;;;;;;;5.41;60.59;101191.09;4977734;28;20045;-88
2022/04/02 06:47:16;;;;;;;17.52;11.32;;;;;;;5.46;59.63;101194.38;4980610;28;20030;-87
2022/04/02 06:49:41;;;;;;;14.70;10.82;;;;;;;5.53;60.40;101198.47;4990561;28;20088;-86
2022/04/02 06:52:07;;;;;;;16.02;10.43;;;;;;;5.44;60.54;101197.94;4994744;28;20074;-88
2022/04/02 06:54:33;;;;;;;13.82;10.50;;;;;;;5.55;61.14;101191.47;4992959;28;20034;-85
2022/04/02 06:56:58;;;;;;;15.55;11.50;;;;;;;5.72;61.12;101203.88;4979475;28;20114;-87
2022/04/02 06:59:24;;;;;;;16.45;11.70;;;;;;;6.02;61.17;101198.53;4988491;28;20069;-87
2022/04/02 07:01:50;;;;;;;16.50;10.73;;;;;;;6.41;60.41;101197.13;4985293;28;20094;-86
2022/04/02 07:04:16;;;;;;;16.50;11.45;;;;;;;7.01;58.94;101193.03;4990098;28;20022;-87
2022/04/02 07:06:44;;;;;;;15.73;11.05;;;;;;;7.30;58.11;101204.03;4984742;28;20050;-86
2022/04/02 07:09:11;;;;;;;14.40;10.32;;;;;;;7.48;57.53;101198.00;4980428;28;20030;-89
2022/04/02 07:11:36;;;;;;;17.75;10.30;;;;;;;7.89;57.07;101205.00;4985153;28;20029;-87
2022/04/02 07:14:01;;;;;;;14.05;10.70;;;;;;;7.95;55.75;101202.13;4991634;28;20034;-90
2022/04/02 07:16:28;;;;;;;14.38;10.23;;;;;;;7.86;54.78;101202.50;4982282;28;20038;-89
2022/04/02 07:18:55;;;;;;;13.98;10.07;;;;;;;7.95;55.27;101202.97;4980751;28;20034;-88
2022/04/02 07:21:25;;;;;;;15.27;9.20;;;;;;;7.93;55.16;101209.19;4976286;28;20051;-88
2022/04/02 07:23:52;;;;;;;13.38;9.43;;;;;;;8.02;55.45;101207.94;4977949;28;20056;-88
2022/04/02 07:26:18;;;;;;;15.40;11.57;;;;;;;8.27;54.32;101219.00;4986504;28;20018;-88
2022/04/02 07:28:44;;;;;;;12.80;9.88;;;;;;;8.39;54.13;101212.34;4985844;28;20029;-89
2022/04/02 07:31:10;;;;;;;14.02;10.82;;;;;;;8.51;53.71;101214.44;4988004;28;20022;-88
2022/04/02 07:33:35;;;;;;;15.23;9.75;;;;;;;8.77;52.94;101227.22;4987186;28;20054;-88
2022/04/02 07:36:08;;;;;;;16.25;11.30;;;;;;;9.23;52.64;101227.63;4980196;28;20026;-88
2022/04/02 07:38:58;;;;;;;14.10;11.07;;;;;;;9.22;52.91;101225.91;4978465;28;20030;-88
2022/04/02 07:41:51;;;;;;;14.43;9.52;;;;;;;9.45;51.71;101230.88;4987971;28;20101;-86
2022/04/02 07:44:19;;;;;;;14.23;10.80;;;;;;;9.42;52.13;101236.28;4983059;28;20035;-90
2022/04/02 07:46:47;;;;;;;15.43;9.70;;;;;;;9.80;51.37;101238.72;4984004;28;20392;-88
2022/04/02 07:49:12;;;;;;;13.27;9.70;;;;;;;9.92;50.88;101239.88;4987471;28;20026;-89
2022/04/02 07:51:39;;;;;;;15.20;9.57;;;;;;;10.00;50.51;101237.69;4972109;28;20061;-89
2022/04/02 07:54:06;;;;;;;13.98;9.70;;;;;;;10.42;50.31;101236.38;4974873;28;20092;-87
2022/04/02 07:56:36;;;;;;;15.95;10.10;;;;;;;10.70;49.51;101238.34;4977287;28;20399;-90
2022/04/02 07:59:09;;;;;;;12.50;9.95;;;;;;;10.83;49.49;101237.66;4991493;28;20033;-89
2022/04/02 08:01:35;;;;;;;10.90;8.93;;;;;;;10.86;48.83;101235.72;4983553;28;20110;-90
2022/04/02 08:04:03;;;;;;;12.10;9.32;;;;;;;11.57;47.66;101243.97;4980126;28;20580;-89
2022/04/02 08:06:32;;;;;;;12.35;9.45;;;;;;;11.94;47.15;101233.91;4986071;28;20027;-90
2022/04/02 08:08:59;;;;;;;15.55;9.68;;;;;;;12.25;46.55;101246.06;4983214;28;20509;-87
2022/04/02 08:11:25;;;;;;;13.38;9.23;;;;;;;12.65;45.59;101244.41;4981252;28;20059;-87
2022/04/02 08:13:52;;;;;;;12.80;9.43;;;;;;;13.31;45.00;101247.25;4979231;28;20034;-86
2022/04/02 08:16:18;;;;;;;12.40;8.27;;;;;;;13.38;44.55;101248.50;4977049;28;20514;-84
2022/04/02 08:18:46;;;;;;;9.40;7.70;;;;;;;14.48;43.00;101239.25;4980436;28;20062;-85
2022/04/02 08:21:13;;;;;;;12.95;8.57;;;;;;;14.62;41.51;101244.41;4982499;28;20151;-87
2022/04/02 08:23:39;;;;;;;12.95;7.13;;;;;;;14.68;41.47;101243.97;4985470;28;20035;-90
2022/04/02 08:26:19;;;;;;;9.55;7.13;;;;;;;15.38;40.53;101245.06;4981763;28;20366;-83
2022/04/02 08:28:47;;;;;;;7.97;7.13;;;;;;;14.95;40.55;101253.53;4980394;28;20030;-85
2022/04/02 08:31:36;;;;;;;8.07;6.18;;;;;;;14.96;41.29;101252.56;4985563;28;20489;-84
2022/04/02 08:34:14;;;;;;;8.20;6.72;;;;;;;14.54;41.61;101262.59;4974588;28;20062;-83
2022/04/02 08:36:47;;;;;;;7.30;5.50;;;;;;;14.15;42.68;101256.50;4977032;28;20041;-84
2022/04/02 08:39:41;;;;;;;8.65;6.07;;;;;;;14.18;42.26;101258.94;4973585;28;20117;-84
2022/04/02 08:42:38;;;;;;;12.18;7.25;;;;;;;13.74;42.26;101265.47;4980198;28;20019;-85
2022/04/02 08:45:11;;;;;;;7.03;5.38;;;;;;;13.63;43.08;101265.38;4980852;28;20097;-85
2022/04/02 08:48:18;;;;;;;8.18;6.05;;;;;;;13.56;43.17;101266.72;4977696;28;20030;-84
2022/04/02 08:50:49;;;;;;;8.18;6.45;;;;;;;13.31;43.35;101271.00;4974490;28;20023;-86
2022/04/02 08:53:17;;;;;;;8.47;6.37;;;;;;;13.10;43.36;101274.03;4978062;28;20031;-86
2022/04/02 08:55:47;;;;;;;6.50;5.07;;;;;;;13.21;43.56;101275.13;4984558;28;20411;-84
2022/04/02 08:58:26;;;;;;;7.88;5.97;;;;;;;13.03;44.29;101278.03;4977515;28;20034;-84
2022/04/02 09:01:10;;;;;;;7.88;6.03;;;;;;;13.42;44.19;101276.38;4987435;28;20026;-82
2022/04/02 09:03:56;;;;;;;7.88;5.68;;;;;;;13.42;44.14;101280.81;4984770;28;20026;-82
2022/04/02 09:06:40;;;;;;;8.05;5.50;;;;;;;13.63;43.37;101283.84;4978609;28;20054;-82
2022/04/02 09:09:06;;;;;;;10.35;6.13;;;;;;;13.69;43.44;101278.97;4987350;28;20496;-83
2022/04/02 09:12:03;;;;;;;9.23;5.00;;;;;;;13.84;42.88;101278.88;4982870;28;20026;-83
2022/04/02 09:14:53;;;;;;;7.10;5.22;;;;;;;14.01;42.11;101272.47;4979055;28;20077;-83
2022/04/02 09:17:43;;;;;;;9.45;4.55;;;;;;;14.38;41.95;101281.34;4989286;28;20113;-84
2022/04/02 09:20:20;;;;;;;8.48;5.35;;;;;;;14.58;41.81;101276.47;4977998;28;20478;-85
2022/04/02 09:23:19;;;;;;;6.47;4.75;;;;;;;14.94;40.69;101275.63;4989903;28;20068;-82
2022/04/02 09:26:02;;;;;;;8.43;4.95;;;;;;;15.20;39.83;101270.22;4986245;28;20393;-84
2022/04/02 09:28:44;;;;;;;5.60;4.28;;;;;;;15.63;39.54;101269.69;4985805;28;20126;-84
2022/04/02 09:31:22;;;;;;;8.30;5.63;;;;;;;15.82;39.21;101277.94;4988196;28;20018;-84
2022/04/02 09:34:24;;;;;;;9.05;4.80;;;;;;;16.11;38.33;101271.34;4982796;28;20104;-84
2022/04/02 09:36:59;;;;;;;7.20;5.53;;;;;;;16.24;38.44;101269.44;4980191;28;20027;-84
2022/04/02 09:39:33;;;;;;;7.05;4.40;;;;;;;16.43;38.20;101267.03;4979034;28;20375;-84
2022/04/02 09:42:17;;;;;;;6.93;5.00;;;;;;;16.35;38.54;101271.25;4987615;28;20026;-86
2022/04/02 09:44:59;;;;;;;7.53;4.63;;;;;;;16.55;38.69;101278.50;4978824;28;20499;-83
2022/04/02 09:47:36;;;;;;;7.95;4.68;;;;;;;16.84;38.44;101277.97;4987159;28;20478;-83
2022/04/02 09:50:09;;;;;;;10.65;4.63;;;;;;;17.34;38.24;101280.97;4990531;28;20038;-85
2022/04/02 09:52:44;;;;;;;9.00;5.50;;;;;;;17.59;37.27;101281.56;4987905;28;20496;-86
2022/04/02 09:55:14;;;;;;;9.35;4.53;;;;;;;18.11;37.23;101290.50;4995379;28;20114;-88
2022/04/02 09:57:46;;;;;;;7.55;4.90;;;;;;;18.55;36.28;101287.59;4985136;28;20026;-89
2022/04/02 10:00:13;;;;;;;6.07;4.38;;;;;;;19.18;35.41;101285.53;4982499;28;20588;-82
2022/04/02 10:02:48;;;;;;;6.05;4.63;;;;;;;19.55;34.14;101275.97;4979997;28;20039;-83
2022/04/02 10:05:22;;;;;;;12.18;4.53;;;;;;;20.20;33.39;101274.34;4985269;28;20440;-83
2022/04/02 10:08:04;;;;;;;6.70;4.03;;;;;;;20.04;33.73;101282.09;4985602;28;20038;-83
2022/04/02 10:10:30;;;;;;;6.68;4.00;;;;;;;19.46;34.42;101283.00;4978783;28;20026;-85
2022/04/02 10:12:57;;;;;;;6.65;3.92;;;;;;;19.49;34.45;101276.53;4978942;28;20078;-83
2022/04/02 10:15:24;;;;;;;6.47;4.00;;;;;;;18.97;34.71;101285.63;4983552;28;20019;-83
2022/04/02 10:17:52;;;;;;;6.22;4.07;;;;;;;19.07;34.44;101282.97;4977818;28;20027;-85
2022/04/02 10:20:28;;;;;;;7.25;3.95;;;;;;;19.20;33.81;101282.72;4991146;28;20113;-86
2022/04/02 10:23:11;;;;;;;6.13;4.00;;;;;;;18.90;32.89;101271.22;4986742;28;20113;-85
2022/04/02 10:26:03;;;;;;;11.25;4.45;;;;;;;18.81;32.86;101282.66;4992509;28;20269;-84
2022/04/02 10:28:32;;;;;;;47.80;22.98;;;;;;;18.00;34.13;101279.94;4982132;28;20046;-83
2022/04/02 10:31:01;;;;;;;5.28;2.85;;;;;;;18.53;31.57;101277.09;4979510;28;20034;-84
2022/04/02 10:33:30;;;;;;;3.35;2.20;;;;;;;19.36;32.12;101277.69;4986819;28;20061;-82
2022/04/02 10:35:57;;;;;;;5.35;2.60;;;;;;;19.61;31.07;101275.44;4991788;28;20058;-83
2022/04/02 10:38:31;;;;;;;5.90;3.00;;;;;;;20.32;32.28;101266.13;4984456;28;20026;-83
2022/04/02 10:40:57;;;;;;;5.85;3.30;;;;;;;20.52;31.81;101265.06;4984695;28;20031;-85
2022/04/02 10:43:30;;;;;;;7.18;3.05;;;;;;;21.28;29.20;101263.88;4983282;28;20362;-84
2022/04/02 10:45:58;;;;;;;6.65;3.90;;;;;;;22.07;29.77;101262.16;4987725;28;20018;-88
2022/04/02 10:48:53;;;;;;;4.40;3.22;;;;;;;22.81;29.58;101265.16;4974356;28;20629;-87
2022/04/02 10:51:24;;;;;;;4.05;2.75;;;;;;;23.64;28.63;101258.91;4985151;28;20041;-90
2022/04/02 10:53:59;;;;;;;4.57;2.30;;;;;;;23.40;26.65;101249.03;4979822;28;20547;-88
2022/04/02 10:56:32;;;;;;;6.68;2.17;;;;;;;23.75;25.89;101250.47;4983388;28;20031;-90
2022/04/02 10:58:58;;;;;;;5.55;2.40;;;;;;;23.19;24.84;101244.16;4981432;28;20022;-88
2022/04/02 11:01:25;;;;;;;4.50;2.20;;;;;;;21.77;25.95;101248.25;4977413;28;20035;-93
2022/04/02 11:03:55;;;;;;;2.92;1.77;;;;;;;21.72;26.93;101253.25;4977235;28;20035;-89
2022/04/02 11:06:51;;;;;;;3.28;2.13;;;;;;;21.13;27.03;101244.91;4976291;28;20571;-89
2022/04/02 11:09:27;;;;;;;5.18;2.20;;;;;;;20.94;27.18;101243.22;4980040;28;20047;-88
2022/04/02 11:11:53;;;;;;;4.25;2.42;;;;;;;21.65;27.08;101241.50;4981382;28;20477;-83
2022/04/02 11:14:21;;;;;;;3.08;2.10;;;;;;;21.90;26.52;101242.53;4979435;28;20037;-83
2022/04/02 11:16:47;;;;;;;3.90;2.05;;;;;;;21.75;26.25;101247.59;4979188;28;20110;-83
2022/04/02 11:22:22;;;;;;;2.67;2.00;;;;;;;21.63;25.87;101238.16;4990351;28;20094;-84
2022/04/02 11:25:03;;;;;;;4.97;2.40;;;;;;;21.77;25.85;101232.22;4987341;28;20069;-83
2022/04/02 11:27:30;;;;;;;4.80;2.30;;;;;;;22.07;25.24;101234.56;4980898;28;20452;-83
2022/04/02 11:30:03;;;;;;;4.60;3.08;;;;;;;21.90;25.58;101239.84;4978913;28;20612;-80
2022/04/02 11:32:42;;;;;;;4.93;2.70;;;;;;;21.69;26.74;101231.34;4978596;28;20076;-81
2022/04/02 11:35:15;;;;;;;3.28;2.03;;;;;;;22.33;26.21;101237.22;4980870;28;20026;-85
2022/04/02 11:38:01;;;;;;;2.95;2.25;;;;;;;22.60;25.97;101235.31;4978932;28;20027;-84
2022/04/02 11:40:28;;;;;;;4.03;2.17;;;;;;;23.00;24.82;101225.69;4980728;28;20034;-82